Terminal Aerodrome Forecast
Issued by NWS Bismarck, ND

Home | Current Version | Previous Version | Graphics & Text | Print | Product List | Glossary On
Versions: 1 2 3 4 5 6 7 8 9 10 11 12 13 14 15 16 17 18 19 20 21 22 23 24 25 26 27 28 29
000
FTUS43 KBIS 271500 AAA
TAFBIS
TAF AMD
KBIS 271502Z 2715/2812 15010KT 4SM -SN OVC030
      TEMPO 2715/2716 2SM -SN BKN025
     FM271700 19011KT P6SM OVC030
     FM272300 35008KT P6SM BKN080=

USA.gov is the U.S. government's official web portal to all federal, state and local government web resources and services.